createdAt,value
2024-05-09T00:00:45.802Z,10.43
2024-05-09T00:03:18.445Z,10.42
2024-05-09T00:05:48.304Z,10.39
2024-05-09T00:08:18.207Z,10.35
2024-05-09T00:10:48.038Z,10.31
2024-05-09T00:13:17.888Z,10.33
2024-05-09T00:15:47.545Z,10.27
2024-05-09T00:18:20.117Z,10.22
2024-05-09T00:20:49.994Z,10.24
2024-05-09T00:23:19.904Z,10.23
2024-05-09T00:25:49.717Z,10.23
2024-05-09T00:28:19.467Z,10.14
2024-05-09T00:30:49.178Z,10.10
2024-05-09T00:33:21.796Z,10.07
2024-05-09T00:35:51.543Z,10.01
2024-05-09T00:38:21.363Z,9.99
2024-05-09T00:40:51.189Z,10.00
2024-05-09T00:43:20.905Z,9.97
2024-05-09T00:45:50.875Z,9.94
2024-05-09T00:48:23.845Z,9.88
2024-05-09T00:50:55.758Z,9.85
2024-05-09T00:53:26.378Z,9.80
2024-05-09T00:55:57.377Z,9.74
2024-05-09T00:58:28.927Z,9.72
2024-05-09T01:01:00.417Z,9.69
2024-05-09T01:03:33.133Z,9.68
2024-05-09T01:06:03.014Z,9.70
2024-05-09T01:08:32.862Z,9.67
2024-05-09T01:11:02.778Z,9.63
2024-05-09T01:13:32.539Z,9.58
2024-05-09T01:16:02.608Z,9.53
2024-05-09T01:18:35.118Z,9.49
2024-05-09T01:21:08.112Z,9.47
2024-05-09T01:23:40.581Z,9.44
2024-05-09T01:26:10.394Z,9.39
2024-05-09T01:28:40.113Z,9.36
2024-05-09T01:31:15.773Z,9.37
2024-05-09T01:33:46.160Z,9.33
2024-05-09T01:36:15.958Z,9.30
2024-05-09T01:38:48.347Z,9.28
2024-05-09T01:41:18.085Z,9.26
2024-05-09T01:43:47.924Z,9.26
2024-05-09T01:46:19.478Z,9.24
2024-05-09T01:48:49.942Z,9.20
2024-05-09T01:51:19.749Z,9.17
2024-05-09T01:53:52.138Z,9.11
2024-05-09T01:56:21.861Z,9.11
2024-05-09T01:58:51.682Z,9.08
2024-05-09T02:01:21.535Z,9.07
2024-05-09T02:03:51.595Z,9.05
2024-05-09T02:06:21.376Z,8.99
2024-05-09T02:08:53.773Z,8.97
2024-05-09T02:11:23.591Z,8.93
2024-05-09T02:13:53.426Z,8.91
2024-05-09T02:16:23.096Z,8.89
2024-05-09T02:18:52.939Z,8.87
2024-05-09T02:21:22.810Z,8.88
2024-05-09T02:23:55.084Z,8.87
2024-05-09T02:26:24.837Z,8.83
2024-05-09T02:28:54.585Z,8.80
2024-05-09T02:31:24.434Z,8.76
2024-05-09T02:33:51.953Z,8.72
2024-05-09T02:36:22.559Z,8.70
2024-05-09T02:38:52.298Z,8.73
2024-05-09T02:41:21.991Z,8.72
2024-05-09T02:43:49.113Z,8.69
2024-05-09T02:46:18.805Z,8.68
2024-05-09T02:48:46.024Z,8.65
2024-05-09T02:51:15.927Z,8.62
2024-05-09T02:53:43.038Z,8.60
2024-05-09T02:56:15.402Z,8.57
2024-05-09T02:58:42.454Z,8.52
2024-05-09T03:01:12.157Z,8.52
2024-05-09T03:03:39.345Z,8.50
2024-05-09T03:06:09.101Z,8.48
2024-05-09T03:08:36.307Z,8.41
2024-05-09T03:11:06.288Z,8.41
2024-05-09T03:13:35.956Z,8.47
2024-05-09T03:16:05.714Z,8.47
2024-05-09T03:18:32.786Z,8.42
2024-05-09T03:21:02.619Z,8.41
2024-05-09T03:23:29.795Z,8.41
2024-05-09T03:25:59.544Z,8.40
2024-05-09T03:28:26.619Z,8.38
2024-05-09T03:30:58.919Z,8.34
2024-05-09T03:33:26.440Z,8.37
2024-05-09T03:35:56.380Z,8.37
2024-05-09T03:38:26.053Z,8.32
2024-05-09T03:40:55.732Z,8.25
2024-05-09T03:43:25.448Z,8.27
2024-05-09T03:45:55.801Z,8.28
2024-05-09T03:48:25.608Z,8.28
2024-05-09T03:50:55.554Z,8.26
2024-05-09T03:53:25.477Z,8.25
2024-05-09T03:55:52.662Z,8.21
2024-05-09T03:58:22.935Z,8.20
2024-05-09T04:00:50.023Z,8.24
2024-05-09T04:03:19.963Z,8.23
2024-05-09T04:05:49.909Z,8.23
2024-05-09T04:08:21.115Z,8.23
2024-05-09T04:10:48.484Z,8.22
2024-05-09T04:13:18.313Z,8.23
2024-05-09T04:15:45.482Z,8.25
2024-05-09T04:18:15.258Z,8.24
2024-05-09T04:20:42.408Z,8.24
2024-05-09T04:23:16.754Z,8.15
2024-05-09T04:25:45.500Z,8.12
2024-05-09T04:28:15.730Z,8.07
2024-05-09T04:30:43.451Z,8.11
2024-05-09T04:33:14.751Z,8.17
2024-05-09T04:35:43.447Z,7.98
2024-05-09T04:38:16.329Z,8.01
2024-05-09T04:40:43.778Z,8.03
2024-05-09T04:43:19.097Z,8.04
2024-05-09T04:45:46.299Z,8.03
2024-05-09T04:48:16.991Z,8.05
2024-05-09T04:50:44.370Z,8.08
2024-05-09T04:53:18.601Z,8.06
2024-05-09T04:55:45.979Z,7.99
2024-05-09T04:58:15.700Z,8.19
2024-05-09T05:00:43.056Z,8.16
2024-05-09T05:03:15.851Z,8.03
2024-05-09T05:05:45.605Z,8.11
2024-05-09T05:08:19.753Z,8.09
2024-05-09T05:10:48.201Z,8.08
2024-05-09T05:13:20.559Z,8.00
2024-05-09T05:15:50.015Z,8.10
2024-05-09T05:18:20.444Z,8.20
2024-05-09T05:20:47.950Z,8.25
2024-05-09T05:23:21.862Z,8.24
2024-05-09T05:25:50.177Z,8.33
2024-05-09T05:28:20.721Z,8.42
2024-05-09T05:30:47.826Z,8.48
2024-05-09T05:33:19.521Z,8.53
2024-05-09T05:35:47.086Z,8.73
2024-05-09T05:38:16.959Z,8.89
2024-05-09T05:40:46.728Z,8.97
2024-05-09T05:43:20.668Z,9.20
2024-05-09T05:45:47.980Z,9.36
2024-05-09T05:48:19.170Z,9.58
2024-05-09T05:50:46.580Z,9.91
2024-05-09T05:53:16.681Z,9.99
2024-05-09T05:55:46.502Z,10.19
2024-05-09T05:58:17.062Z,10.40
2024-05-09T06:00:44.671Z,10.28
2024-05-09T06:03:15.009Z,10.50
2024-05-09T06:05:44.066Z,10.54
2024-05-09T06:08:14.739Z,10.65
2024-05-09T06:10:42.576Z,10.77
2024-05-09T06:13:15.774Z,10.78
2024-05-09T06:15:43.649Z,10.98
2024-05-09T06:18:14.283Z,11.12
2024-05-09T06:20:43.622Z,11.23
2024-05-09T06:23:14.389Z,11.46
2024-05-09T06:25:42.514Z,11.45
2024-05-09T06:28:15.113Z,11.51
2024-05-09T06:30:43.294Z,11.62
2024-05-09T06:33:15.936Z,11.46
2024-05-09T06:35:44.278Z,11.52
2024-05-09T06:38:14.469Z,11.68
2024-05-09T06:40:43.783Z,11.81
2024-05-09T06:43:19.299Z,11.90
2024-05-09T06:45:48.063Z,11.84
2024-05-09T06:48:21.185Z,11.85
2024-05-09T06:50:49.370Z,12.08
2024-05-09T06:53:20.106Z,12.15
2024-05-09T06:55:47.155Z,11.95
2024-05-09T06:58:19.587Z,11.92
2024-05-09T07:00:46.926Z,11.75
2024-05-09T07:03:18.823Z,11.73
2024-05-09T07:05:48.214Z,11.80
2024-05-09T07:08:19.450Z,11.87
2024-05-09T07:10:47.012Z,11.83
2024-05-09T07:13:19.581Z,12.08
2024-05-09T07:15:46.693Z,12.13
2024-05-09T07:18:20.031Z,11.97
2024-05-09T07:20:49.090Z,12.24
2024-05-09T07:23:19.805Z,12.40
2024-05-09T07:25:47.254Z,12.54
2024-05-09T07:28:21.302Z,12.59
2024-05-09T07:30:48.578Z,12.53
2024-05-09T07:33:20.205Z,12.46
2024-05-09T07:35:48.806Z,12.82
2024-05-09T07:38:18.617Z,13.15
2024-05-09T07:40:45.997Z,12.89
2024-05-09T07:43:16.668Z,13.06
2024-05-09T07:45:52.429Z,13.46
2024-05-09T07:52:38.874Z,13.48
2024-05-09T07:53:49.340Z,13.81
2024-05-09T07:56:21.870Z,13.63
2024-05-09T07:58:54.518Z,14.76
2024-05-09T08:01:26.597Z,14.36
2024-05-09T08:03:56.954Z,14.93
2024-05-09T08:06:24.749Z,15.62
2024-05-09T08:08:54.678Z,16.64
2024-05-09T08:11:21.961Z,16.63
2024-05-09T08:13:51.800Z,17.69
2024-05-09T08:16:19.263Z,17.98
2024-05-09T08:18:51.903Z,18.71
2024-05-09T08:21:19.524Z,18.74
2024-05-09T08:23:49.386Z,19.62
2024-05-09T08:26:16.736Z,18.72
2024-05-09T08:28:46.487Z,19.50
2024-05-09T08:31:13.646Z,20.42
2024-05-09T08:33:47.231Z,20.80
2024-05-09T08:36:17.420Z,20.91
2024-05-09T08:38:47.136Z,20.89
2024-05-09T08:41:15.290Z,21.67
2024-05-09T08:43:47.182Z,21.70
2024-05-09T08:46:14.587Z,22.17
2024-05-09T08:48:47.967Z,22.74
2024-05-09T08:51:18.009Z,22.28
2024-05-09T08:53:47.898Z,22.44
2024-05-09T08:56:16.445Z,22.93
2024-05-09T08:58:48.124Z,23.81
2024-05-09T09:01:18.272Z,24.65
2024-05-09T09:03:48.928Z,24.91
2024-05-09T09:06:21.217Z,23.96
2024-05-09T09:08:51.801Z,23.33
2024-05-09T09:11:19.286Z,24.54
2024-05-09T09:13:49.063Z,24.40
2024-05-09T09:16:17.194Z,25.74
2024-05-09T09:18:47.604Z,26.06
2024-05-09T09:21:18.332Z,26.46
2024-05-09T09:23:48.100Z,26.23
2024-05-09T09:26:16.607Z,26.82
2024-05-09T09:28:47.443Z,27.19
2024-05-09T09:31:17.929Z,26.83
2024-05-09T09:33:48.387Z,25.49
2024-05-09T09:36:15.670Z,25.74
2024-05-09T09:38:50.912Z,27.60
2024-05-09T09:41:23.367Z,27.38
2024-05-09T09:43:53.429Z,27.04
2024-05-09T09:46:20.881Z,27.62
2024-05-09T09:48:51.874Z,26.48
2024-05-09T09:51:19.862Z,27.06
2024-05-09T09:53:55.203Z,27.82
2024-05-09T09:56:23.275Z,27.03
2024-05-09T09:58:55.825Z,26.70
2024-05-09T10:01:23.128Z,27.56
2024-05-09T10:03:53.172Z,26.48
2024-05-09T10:06:21.725Z,26.78
2024-05-09T10:08:54.607Z,27.41
2024-05-09T10:11:22.117Z,27.24
2024-05-09T10:13:55.023Z,27.33
2024-05-09T10:16:22.426Z,28.30
2024-05-09T10:18:52.523Z,28.93
2024-05-09T10:21:20.835Z,28.77
2024-05-09T10:24:04.734Z,28.18
2024-05-09T10:26:33.233Z,27.27
2024-05-09T10:29:03.521Z,27.51
2024-05-09T10:31:30.878Z,27.40
2024-05-09T10:34:00.404Z,27.97
2024-05-09T10:36:31.745Z,27.33
2024-05-09T10:39:01.557Z,26.72
2024-05-09T10:41:31.197Z,28.57
2024-05-09T10:43:58.345Z,28.54
2024-05-09T10:46:28.278Z,29.66
2024-05-09T10:48:58.452Z,29.60
2024-05-09T10:51:28.662Z,30.32
2024-05-09T10:53:57.000Z,30.04
2024-05-09T10:56:29.486Z,29.10
2024-05-09T10:58:56.539Z,28.38
2024-05-09T11:01:26.976Z,29.35
2024-05-09T11:03:56.568Z,29.49
2024-05-09T11:06:26.680Z,28.62
2024-05-09T11:08:53.877Z,28.84
2024-05-09T11:11:24.018Z,26.87
2024-05-09T11:13:53.699Z,28.60
2024-05-09T11:16:24.022Z,28.06
2024-05-09T11:18:55.954Z,28.65
2024-05-09T11:21:27.028Z,28.37
2024-05-09T11:23:54.743Z,29.40
2024-05-09T11:26:25.287Z,28.75
2024-05-09T11:28:55.202Z,28.42
2024-05-09T11:31:25.043Z,27.18
2024-05-09T11:33:54.753Z,27.10
2024-05-09T11:36:24.706Z,27.72
2024-05-09T11:38:51.928Z,27.46
2024-05-09T11:41:21.734Z,27.97
2024-05-09T11:43:48.848Z,27.71
2024-05-09T11:46:21.407Z,28.24
2024-05-09T11:48:48.824Z,28.61
2024-05-09T11:51:18.665Z,28.72
2024-05-09T11:53:45.855Z,29.12
2024-05-09T11:56:17.467Z,27.81
2024-05-09T11:58:44.696Z,28.48
2024-05-09T12:01:14.507Z,28.60
2024-05-09T12:03:44.405Z,28.81
2024-05-09T12:06:14.390Z,28.76
2024-05-09T12:08:41.827Z,28.49
2024-05-09T12:11:13.894Z,28.34
2024-05-09T12:13:41.054Z,28.64
2024-05-09T12:16:11.638Z,28.50
2024-05-09T12:18:38.776Z,28.24
2024-05-09T12:21:11.870Z,27.20
2024-05-09T12:23:39.327Z,27.17
2024-05-09T12:26:10.270Z,27.62
2024-05-09T12:28:37.507Z,28.01
2024-05-09T12:31:07.653Z,27.91
2024-05-09T12:33:34.986Z,28.38
2024-05-09T12:36:04.966Z,27.81
2024-05-09T12:38:34.694Z,28.29
2024-05-09T12:41:04.431Z,27.89
2024-05-09T12:43:31.621Z,27.05
2024-05-09T12:46:01.577Z,28.29
2024-05-09T12:48:28.989Z,29.73
2024-05-09T12:50:58.880Z,28.36
2024-05-09T12:53:25.941Z,29.39
2024-05-09T12:56:02.223Z,30.24
2024-05-09T12:58:30.971Z,30.45
2024-05-09T13:01:00.871Z,30.49
2024-05-09T13:03:28.353Z,29.51
2024-05-09T13:05:58.317Z,28.61
2024-05-09T13:08:25.525Z,28.80
2024-05-09T13:10:57.982Z,29.71
2024-05-09T13:13:25.096Z,29.06
2024-05-09T13:15:55.074Z,29.51
2024-05-09T13:18:22.446Z,27.78
2024-05-09T13:20:52.298Z,28.45
2024-05-09T13:23:19.329Z,28.36
2024-05-09T13:25:49.123Z,28.78
2024-05-09T13:28:19.179Z,28.02
2024-05-09T13:30:49.102Z,27.40
2024-05-09T13:33:16.357Z,28.11
2024-05-09T13:35:49.689Z,27.71
2024-05-09T13:38:19.439Z,26.74
2024-05-09T13:40:50.337Z,26.53
2024-05-09T13:43:22.282Z,27.48
2024-05-09T13:45:54.497Z,27.71
2024-05-09T13:48:21.955Z,27.55
2024-05-09T13:50:51.921Z,28.85
2024-05-09T13:53:19.506Z,27.01
2024-05-09T13:55:49.441Z,26.21
2024-05-09T13:58:16.968Z,26.92
2024-05-09T14:00:49.760Z,26.53
2024-05-09T14:03:19.200Z,27.65
2024-05-09T14:05:51.719Z,28.26
2024-05-09T14:08:20.075Z,27.45
2024-05-09T14:10:50.911Z,26.98
2024-05-09T14:13:18.498Z,26.71
2024-05-09T14:15:51.410Z,26.09
2024-05-09T14:18:19.184Z,25.78
2024-05-09T14:20:48.958Z,25.74
2024-05-09T14:23:17.975Z,24.82
2024-05-09T14:25:51.313Z,25.41
2024-05-09T14:28:19.944Z,25.36
2024-05-09T14:30:52.512Z,25.05
2024-05-09T14:33:25.645Z,24.87
2024-05-09T14:35:56.039Z,24.93
2024-05-09T14:38:23.768Z,23.96
2024-05-09T14:40:53.755Z,23.92
2024-05-09T14:43:21.271Z,23.86
2024-05-09T14:45:54.075Z,24.18
2024-05-09T14:48:21.808Z,24.12
2024-05-09T14:50:51.488Z,23.74
2024-05-09T14:53:18.665Z,23.65
2024-05-09T14:55:49.675Z,23.72
2024-05-09T14:58:17.166Z,23.83
2024-05-09T15:00:51.279Z,23.81
2024-05-09T15:03:22.565Z,23.89
2024-05-09T15:05:53.239Z,23.92
2024-05-09T15:08:20.546Z,24.09
2024-05-09T15:10:51.019Z,23.98
2024-05-09T15:13:18.790Z,23.90
2024-05-09T15:15:48.777Z,23.78
2024-05-09T15:18:16.570Z,23.50
2024-05-09T15:20:49.701Z,23.59
2024-05-09T15:23:16.812Z,23.68
2024-05-09T15:25:47.357Z,23.58
2024-05-09T15:28:14.674Z,23.42
2024-05-09T15:30:46.562Z,23.71
2024-05-09T15:33:14.441Z,23.59
2024-05-09T15:35:46.238Z,23.59
2024-05-09T15:38:16.316Z,23.61
2024-05-09T15:40:46.297Z,23.49
2024-05-09T15:43:14.052Z,23.34
2024-05-09T15:45:43.861Z,23.16
2024-05-09T15:48:11.741Z,23.22
2024-05-09T15:50:42.772Z,23.06
2024-05-09T15:53:12.186Z,22.81
2024-05-09T15:55:45.405Z,22.80
2024-05-09T15:58:13.265Z,23.03
2024-05-09T16:00:45.682Z,22.98
2024-05-09T16:03:15.079Z,22.88
2024-05-09T16:05:47.358Z,22.90
2024-05-09T16:08:15.925Z,22.77
2024-05-09T16:10:49.590Z,22.97
2024-05-09T16:13:17.652Z,22.68
2024-05-09T16:15:48.565Z,22.52
2024-05-09T16:18:15.970Z,22.35
2024-05-09T16:20:48.492Z,22.15
2024-05-09T16:23:17.459Z,22.27
2024-05-09T16:25:51.460Z,22.56
2024-05-09T16:28:18.992Z,22.49
2024-05-09T16:30:48.950Z,22.63
2024-05-09T16:33:19.359Z,22.52
2024-05-09T16:35:49.615Z,22.58
2024-05-09T16:38:16.876Z,22.47
2024-05-09T16:40:50.070Z,22.70
2024-05-09T16:43:18.586Z,22.43
2024-05-09T16:45:48.633Z,22.50
2024-05-09T16:48:16.115Z,22.39
2024-05-09T16:50:45.891Z,22.35
2024-05-09T16:53:13.681Z,22.24
2024-05-09T16:55:43.455Z,22.25
2024-05-09T16:58:13.341Z,22.35
2024-05-09T17:00:44.452Z,22.36
2024-05-09T17:03:14.658Z,22.48
2024-05-09T17:05:46.906Z,22.22
2024-05-09T17:08:16.335Z,22.39
2024-05-09T17:10:48.953Z,22.18
2024-05-09T17:13:22.674Z,22.23
2024-05-09T17:15:52.728Z,22.17
2024-05-09T17:18:20.282Z,21.86
2024-05-09T17:20:51.466Z,21.98
2024-05-09T17:23:18.625Z,21.99
2024-05-09T17:25:48.267Z,21.67
2024-05-09T17:28:15.566Z,21.59
2024-05-09T17:30:48.555Z,21.39
2024-05-09T17:33:15.920Z,21.54
2024-05-09T17:35:46.245Z,21.34
2024-05-09T17:38:13.547Z,21.31
2024-05-09T17:40:43.398Z,21.25
2024-05-09T17:43:11.172Z,21.18
2024-05-09T17:45:42.159Z,21.28
2024-05-09T17:48:12.716Z,21.21
2024-05-09T17:50:42.912Z,21.29
2024-05-09T17:53:10.606Z,21.29
2024-05-09T17:55:40.899Z,20.96
2024-05-09T17:58:09.801Z,20.90
2024-05-09T18:00:42.067Z,20.96
2024-05-09T18:03:13.563Z,20.88
2024-05-09T18:05:45.045Z,20.69
2024-05-09T18:08:13.115Z,20.62
2024-05-09T18:10:43.337Z,20.45
2024-05-09T18:13:12.088Z,20.67
2024-05-09T18:15:42.352Z,20.49
2024-05-09T18:18:12.788Z,20.51
2024-05-09T18:20:45.538Z,20.55
2024-05-09T18:23:15.963Z,20.41
2024-05-09T18:25:48.189Z,20.30
2024-05-09T18:28:16.226Z,20.26
2024-05-09T18:30:46.598Z,20.12
2024-05-09T18:33:16.931Z,20.18
2024-05-09T18:35:48.814Z,20.08
2024-05-09T18:38:16.303Z,19.94
2024-05-09T18:40:48.946Z,19.93
2024-05-09T18:43:17.209Z,20.04
2024-05-09T18:45:47.773Z,19.91
2024-05-09T18:48:17.760Z,19.79
2024-05-09T18:50:47.572Z,19.80
2024-05-09T18:53:16.027Z,19.63
2024-05-09T18:55:45.809Z,19.50
2024-05-09T18:58:12.927Z,19.49
2024-05-09T19:00:45.385Z,19.46
2024-05-09T19:03:15.107Z,19.24
2024-05-09T19:05:48.825Z,19.27
2024-05-09T19:08:16.210Z,19.22
2024-05-09T19:10:46.486Z,19.20
2024-05-09T19:13:14.695Z,19.12
2024-05-09T19:15:45.358Z,19.03
2024-05-09T19:18:13.673Z,18.98
2024-05-09T19:20:44.166Z,18.90
2024-05-09T19:23:13.956Z,18.91
2024-05-09T19:25:43.717Z,18.86
2024-05-09T19:28:10.903Z,18.77
2024-05-09T19:30:42.453Z,18.70
2024-05-09T19:33:12.799Z,18.77
2024-05-09T19:35:43.901Z,18.69
2024-05-09T19:38:13.941Z,18.44
2024-05-09T19:40:43.953Z,18.40
2024-05-09T19:43:11.219Z,18.31
2024-05-09T19:45:41.051Z,18.39
2024-05-09T19:48:08.671Z,18.20
2024-05-09T19:50:43.151Z,18.27
2024-05-09T19:53:14.987Z,18.09
2024-05-09T19:55:45.108Z,17.89
2024-05-09T19:58:13.046Z,17.94
2024-05-09T20:00:44.270Z,17.89
2024-05-09T20:03:13.349Z,17.90
2024-05-09T20:05:45.380Z,17.85
2024-05-09T20:08:15.699Z,17.61
2024-05-09T20:10:45.650Z,17.70
2024-05-09T20:13:14.253Z,17.74
2024-05-09T20:15:44.034Z,17.60
2024-05-09T20:18:11.569Z,17.64
2024-05-09T20:20:43.901Z,17.61
2024-05-09T20:23:12.963Z,17.49
2024-05-09T20:25:45.530Z,17.41
2024-05-09T20:28:12.765Z,17.42
2024-05-09T20:30:42.807Z,17.32
2024-05-09T20:33:10.451Z,17.19
2024-05-09T20:35:40.521Z,17.03
2024-05-09T20:38:07.834Z,16.85
2024-05-09T20:40:39.308Z,16.86
2024-05-09T20:43:10.772Z,16.81
2024-05-09T20:45:41.091Z,16.78
2024-05-09T20:48:10.039Z,16.74
2024-05-09T20:50:42.079Z,16.65
2024-05-09T20:53:11.188Z,16.62
2024-05-09T20:55:41.553Z,16.52
2024-05-09T20:58:11.986Z,16.40
2024-05-09T21:00:44.707Z,16.34
2024-05-09T21:03:14.878Z,16.30
2024-05-09T21:05:46.784Z,16.20
2024-05-09T21:08:14.493Z,16.07
2024-05-09T21:10:44.369Z,16.03
2024-05-09T21:13:14.281Z,16.03
2024-05-09T21:15:44.132Z,16.03
2024-05-09T21:18:11.348Z,16.01
2024-05-09T21:20:41.080Z,15.87
2024-05-09T21:23:08.385Z,15.78
2024-05-09T21:25:38.166Z,15.70
2024-05-09T21:28:05.914Z,15.55
2024-05-09T21:30:42.420Z,15.47
2024-05-09T21:33:12.936Z,15.40
2024-05-09T21:35:44.709Z,15.33
2024-05-09T21:38:13.812Z,15.27
2024-05-09T21:40:44.454Z,15.21
2024-05-09T21:43:12.235Z,15.12
2024-05-09T21:45:44.846Z,15.03
2024-05-09T21:48:12.923Z,14.92
2024-05-09T21:50:43.026Z,14.90
2024-05-09T21:53:10.713Z,14.84
2024-05-09T21:55:40.677Z,14.77
2024-05-09T21:58:08.118Z,14.68
2024-05-09T22:00:39.460Z,14.56
2024-05-09T22:03:11.171Z,14.49
2024-05-09T22:05:44.410Z,14.39
2024-05-09T22:08:12.045Z,14.37
2024-05-09T22:10:41.838Z,14.30
2024-05-09T22:13:09.288Z,14.25
2024-05-09T22:15:41.026Z,14.19
2024-05-09T22:18:11.639Z,14.13
2024-05-09T22:20:45.765Z,14.06
2024-05-09T22:23:14.346Z,13.97
2024-05-09T22:25:44.335Z,13.92
2024-05-09T22:28:14.697Z,13.96
2024-05-09T22:30:46.767Z,14.02
2024-05-09T22:33:17.344Z,14.07
2024-05-09T22:35:47.640Z,14.08
2024-05-09T22:38:14.831Z,14.09
2024-05-09T22:40:48.411Z,14.12
2024-05-09T22:43:21.632Z,14.12
2024-05-09T22:45:54.365Z,14.12
2024-05-09T22:48:25.451Z,14.05
2024-05-09T22:50:56.053Z,14.01
2024-05-09T22:53:25.636Z,13.89
2024-05-09T22:55:55.759Z,13.81
2024-05-09T22:58:23.611Z,13.80
2024-05-09T23:00:53.932Z,13.74
2024-05-09T23:03:22.646Z,13.70
2024-05-09T23:05:55.394Z,13.67
2024-05-09T23:08:22.412Z,13.63
2024-05-09T23:10:52.392Z,13.58
2024-05-09T23:13:19.741Z,13.55
2024-05-09T23:15:49.637Z,13.53
2024-05-09T23:18:16.797Z,13.46
2024-05-09T23:20:46.516Z,13.53
2024-05-09T23:23:16.185Z,13.48
2024-05-09T23:25:46.805Z,13.41
2024-05-09T23:28:14.028Z,13.35
2024-05-09T23:30:44.075Z,13.37
2024-05-09T23:33:13.087Z,13.30
2024-05-09T23:35:44.992Z,13.33
2024-05-09T23:38:12.267Z,13.33
2024-05-09T23:40:44.727Z,13.33
2024-05-09T23:43:12.766Z,13.32
2024-05-09T23:45:43.335Z,13.27
2024-05-09T23:48:11.211Z,13.24
2024-05-09T23:50:41.751Z,13.19
2024-05-09T23:53:10.181Z,13.12
2024-05-09T23:55:41.220Z,13.08
2024-05-09T23:58:11.801Z,13.03
